Time;durP1;ratioP1;P1;durP2;ratioP2;P2;SDS_P1;SDS_P2;PMS_P1;PMS_P2;Temp;Humidity;BMP_temperature;BMP_pressure;BME280_temperature;BME280_humidity;BME280_pressure;Samples;Min_cycle;Max_cycle;Signal;HPM_P1;HPM_P2
2022/05/13 00:01:12;;;;;;;6.37;4.43;;;9.90;99.90;;;;;;5036888;28;20629;-68
2022/05/13 00:03:39;;;;;;;8.03;4.53;;;9.90;99.90;;;;;;5035481;28;20231;-63
2022/05/13 00:06:05;;;;;;;5.47;4.97;;;9.90;99.90;;;;;;5036719;28;20448;-62
2022/05/13 00:08:31;;;;;;;6.33;4.93;;;9.90;99.90;;;;;;5035914;28;20445;-68
2022/05/13 00:10:57;;;;;;;6.27;3.90;;;9.90;99.90;;;;;;5036709;28;20555;-69
2022/05/13 00:13:23;;;;;;;10.00;3.90;;;9.90;99.90;;;;;;5036580;28;20479;-61
2022/05/13 00:15:50;;;;;;;5.63;4.13;;;9.90;99.90;;;;;;5034887;28;20384;-68
2022/05/13 00:18:17;;;;;;;6.43;4.67;;;9.80;99.90;;;;;;5036389;28;20387;-62
2022/05/13 00:20:43;;;;;;;8.53;4.77;;;9.80;99.90;;;;;;5034714;28;20400;-68
2022/05/13 00:23:09;;;;;;;4.90;4.47;;;9.80;99.90;;;;;;5036311;28;20430;-68
2022/05/13 00:25:36;;;;;;;6.77;4.67;;;9.80;99.90;;;;;;5035378;28;20929;-68
2022/05/13 00:28:03;;;;;;;6.10;4.30;;;9.80;99.90;;;;;;5036458;28;20176;-69
2022/05/13 00:30:31;;;;;;;4.73;4.23;;;9.70;99.90;;;;;;5035510;28;20432;-61
2022/05/13 00:32:58;;;;;;;6.20;4.43;;;9.70;99.90;;;;;;5034969;28;20420;-68
2022/05/13 00:35:24;;;;;;;5.40;4.40;;;9.70;99.90;;;;;;5036154;28;20461;-68
2022/05/13 00:37:50;;;;;;;4.80;4.10;;;9.80;99.90;;;;;;5036303;28;20906;-68
2022/05/13 00:40:18;;;;;;;4.93;4.50;;;9.80;99.90;;;;;;5035512;28;20425;-62
2022/05/13 00:42:43;;;;;;;4.50;4.10;;;9.80;99.90;;;;;;5036022;28;20412;-68
2022/05/13 00:45:13;;;;;;;4.97;4.57;;;9.80;99.90;;;;;;5036213;28;20504;-61
2022/05/13 00:47:39;;;;;;;6.00;4.43;;;9.70;99.90;;;;;;5036004;28;20686;-68
2022/05/13 00:50:06;;;;;;;7.10;3.90;;;9.70;99.90;;;;;;5033636;28;20443;-68
2022/05/13 00:52:32;;;;;;;6.63;4.90;;;9.70;99.90;;;;;;5035601;28;20433;-62
2022/05/13 00:55:01;;;;;;;9.93;4.73;;;9.70;99.90;;;;;;5035689;28;20441;-68
2022/05/13 00:57:27;;;;;;;6.30;3.93;;;9.70;99.90;;;;;;5035930;28;20897;-61
2022/05/13 00:59:54;;;;;;;8.63;4.03;;;9.70;99.90;;;;;;5034574;28;20413;-67
2022/05/13 01:02:20;;;;;;;8.27;4.90;;;9.70;99.90;;;;;;5035318;28;20492;-68
2022/05/13 01:04:45;;;;;;;10.83;5.00;;;9.70;99.90;;;;;;5035581;28;20493;-61
2022/05/13 01:07:17;;;;;;;5.07;4.40;;;9.80;99.90;;;;;;5035449;28;20206;-63
2022/05/13 01:09:52;;;;;;;7.87;4.90;;;9.90;99.90;;;;;;5033293;28;20436;-61
2022/05/13 01:12:22;;;;;;;5.47;4.40;;;9.80;99.90;;;;;;5035416;28;20503;-68
2022/05/13 01:14:52;;;;;;;14.00;4.50;;;9.90;99.90;;;;;;5033986;28;20464;-65
2022/05/13 01:20:21;;;;;;;9.70;4.70;;;9.90;99.90;;;;;;5034974;28;20398;-61
2022/05/13 01:22:50;;;;;;;5.90;4.87;;;9.90;99.90;;;;;;5035214;28;20530;-62
2022/05/13 01:25:19;;;;;;;6.40;4.73;;;9.90;99.90;;;;;;5035221;28;20464;-61
2022/05/13 01:27:46;;;;;;;11.33;5.30;;;9.90;99.90;;;;;;5033875;28;20452;-63
2022/05/13 01:30:15;;;;;;;6.93;5.43;;;9.90;99.90;;;;;;5034455;28;20429;-68
2022/05/13 01:32:41;;;;;;;8.50;5.70;;;10.00;99.90;;;;;;5035195;28;20461;-68
2022/05/13 01:35:07;;;;;;;5.83;5.23;;;10.00;99.90;;;;;;5035162;28;20442;-68
2022/05/13 01:37:33;;;;;;;7.57;5.67;;;10.00;99.90;;;;;;5035097;28;20171;-67
2022/05/13 01:40:01;;;;;;;7.80;5.87;;;10.00;99.90;;;;;;5034447;28;20417;-61
2022/05/13 01:42:28;;;;;;;6.37;5.30;;;10.10;99.90;;;;;;5035145;28;20839;-68
2022/05/13 01:44:53;;;;;;;12.33;6.50;;;10.10;99.90;;;;;;5033455;28;20483;-68
2022/05/13 01:47:19;;;;;;;6.17;4.93;;;10.10;99.90;;;;;;5034905;28;20899;-61
2022/05/13 01:49:45;;;;;;;8.47;5.93;;;10.20;99.90;;;;;;5034251;28;20195;-68
2022/05/13 01:52:10;;;;;;;8.00;6.10;;;10.20;99.90;;;;;;5034749;28;20192;-62
2022/05/13 01:54:36;;;;;;;10.77;7.43;;;10.10;99.90;;;;;;5034677;28;20213;-61
2022/05/13 01:57:02;;;;;;;6.87;5.30;;;10.10;99.90;;;;;;5034747;28;20172;-62
2022/05/13 01:59:27;;;;;;;12.13;7.20;;;10.10;99.90;;;;;;5033856;28;20183;-68
2022/05/13 02:01:53;;;;;;;8.57;7.60;;;10.10;99.90;;;;;;5034126;28;20398;-62
2022/05/13 02:04:19;;;;;;;9.60;6.43;;;10.10;99.90;;;;;;5034540;28;20191;-61
2022/05/13 02:06:44;;;;;;;14.07;7.20;;;10.20;99.90;;;;;;5034471;28;20163;-68
2022/05/13 02:09:10;;;;;;;9.73;7.30;;;10.20;99.90;;;;;;5033684;28;20206;-61
2022/05/13 02:11:36;;;;;;;10.67;8.40;;;10.20;99.90;;;;;;5033606;28;20206;-68
2022/05/13 02:14:04;;;;;;;10.80;7.87;;;10.20;99.90;;;;;;5033942;28;20164;-61
2022/05/13 02:16:29;;;;;;;10.13;7.90;;;10.20;99.90;;;;;;5034390;28;20404;-61
2022/05/13 02:18:55;;;;;;;14.40;6.97;;;10.20;99.90;;;;;;5033691;28;20478;-61
2022/05/13 02:21:21;;;;;;;7.30;6.63;;;10.20;99.90;;;;;;5032443;28;20281;-62
2022/05/13 02:23:47;;;;;;;12.63;8.20;;;10.30;99.90;;;;;;5034107;28;20188;-68
2022/05/13 02:26:14;;;;;;;8.67;6.97;;;10.20;99.90;;;;;;5034277;28;20536;-62
2022/05/13 02:28:41;;;;;;;8.73;7.83;;;10.30;99.90;;;;;;5033590;28;20416;-68
2022/05/13 02:31:07;;;;;;;9.80;6.93;;;10.30;99.90;;;;;;5034135;28;20453;-68
2022/05/13 02:33:34;;;;;;;9.27;6.90;;;10.30;99.90;;;;;;5033999;28;20400;-68
2022/05/13 02:36:00;;;;;;;11.73;7.43;;;10.30;99.90;;;;;;5034036;28;20471;-62
2022/05/13 02:38:25;;;;;;;11.03;6.40;;;10.30;99.90;;;;;;5033841;28;20905;-63
2022/05/13 02:43:36;;;;;;;7.10;6.40;;;10.40;99.90;;;;;;5033689;28;20198;-69
2022/05/13 02:46:02;;;;;;;12.13;6.60;;;10.50;99.90;;;;;;5033950;28;20418;-69
2022/05/13 02:48:28;;;;;;;11.90;6.67;;;10.40;99.90;;;;;;5033430;28;20379;-66
2022/05/13 02:50:53;;;;;;;10.23;7.43;;;10.50;99.90;;;;;;5033593;28;20446;-62
2022/05/13 02:53:20;;;;;;;11.07;8.13;;;10.50;99.90;;;;;;5033707;28;20263;-62
2022/05/13 02:55:45;;;;;;;8.90;6.47;;;10.50;99.90;;;;;;5032288;28;20490;-68
2022/05/13 02:58:11;;;;;;;10.20;7.90;;;10.50;99.90;;;;;;5033561;28;20459;-68
2022/05/13 03:00:37;;;;;;;11.57;7.93;;;10.50;99.90;;;;;;5032753;28;20221;-69
2022/05/13 03:03:05;;;;;;;7.93;6.77;;;10.60;99.90;;;;;;5032129;28;20206;-68
2022/05/13 03:05:31;;;;;;;15.50;7.60;;;10.60;99.90;;;;;;5033522;28;20377;-62
2022/05/13 03:08:00;;;;;;;7.73;6.47;;;10.50;99.90;;;;;;5033376;28;20380;-62
2022/05/13 03:10:30;;;;;;;12.53;7.97;;;10.60;99.90;;;;;;5032765;28;20834;-68
2022/05/13 03:12:56;;;;;;;9.23;6.77;;;10.60;99.90;;;;;;5033419;28;20409;-69
2022/05/13 03:15:24;;;;;;;9.00;6.87;;;10.60;99.90;;;;;;5033358;28;20369;-62
2022/05/13 03:17:49;;;;;;;7.00;6.40;;;10.60;99.90;;;;;;5031559;28;20401;-68
2022/05/13 03:20:17;;;;;;;7.27;5.90;;;10.60;99.90;;;;;;5031476;28;20468;-68
2022/05/13 03:22:47;;;;;;;8.50;6.57;;;10.60;99.90;;;;;;5033530;28;20397;-69
2022/05/13 03:25:14;;;;;;;10.83;7.07;;;10.60;99.90;;;;;;5033008;28;20415;-61
2022/05/13 03:27:40;;;;;;;9.20;6.77;;;10.60;99.90;;;;;;5033259;28;20385;-67
2022/05/13 03:30:08;;;;;;;8.60;6.20;;;10.60;99.90;;;;;;5032449;28;20457;-69
2022/05/13 03:32:34;;;;;;;11.87;6.10;;;10.60;99.90;;;;;;5033199;28;20422;-69
2022/05/13 03:35:00;;;;;;;8.60;6.07;;;10.60;99.90;;;;;;5033147;28;20461;-68
2022/05/13 03:37:26;;;;;;;6.23;5.63;;;10.70;99.90;;;;;;5032830;28;20414;-69
2022/05/13 03:39:51;;;;;;;7.07;6.37;;;10.70;99.90;;;;;;5032452;28;20883;-68
2022/05/13 03:42:19;;;;;;;7.60;5.73;;;10.70;99.90;;;;;;5033171;28;20207;-61
2022/05/13 03:44:45;;;;;;;5.70;5.20;;;10.70;99.90;;;;;;5033083;28;20171;-61
2022/05/13 03:47:10;;;;;;;7.07;6.37;;;10.70;1.00;;;;;;5033367;28;20377;-62
2022/05/13 03:49:36;;;;;;;6.23;5.63;;;10.80;99.90;;;;;;5032592;28;20699;-68
2022/05/13 03:52:02;;;;;;;10.53;7.97;;;10.80;1.00;;;;;;5032919;28;20192;-67
2022/05/13 03:54:27;;;;;;;12.83;6.30;;;10.90;1.00;;;;;;5031878;28;20191;-63
2022/05/13 03:56:53;;;;;;;8.23;6.53;;;10.90;1.00;;;;;;5031375;28;20266;-68
2022/05/13 03:59:18;;;;;;;14.87;6.87;;;10.90;1.00;;;;;;5032419;28;20175;-69
2022/05/13 04:01:44;;;;;;;9.77;6.27;;;10.90;1.00;;;;;;5031869;28;20617;-68
2022/05/13 04:04:10;;;;;;;10.40;6.33;;;10.90;1.00;;;;;;5031511;28;20198;-68
2022/05/13 04:09:20;;;;;;;10.40;5.85;;;10.90;1.00;;;;;;5032271;28;20226;-62
2022/05/13 04:16:04;;;;;;;8.33;6.37;;;10.90;1.00;;;;;;5032763;28;20735;-69
2022/05/13 04:17:15;;;;;;;7.07;6.00;;;10.90;1.00;;;;;;5032712;28;20380;-69
2022/05/13 04:19:40;;;;;;;6.83;5.30;;;11.00;1.00;;;;;;5032153;28;20407;-68
2022/05/13 04:22:06;;;;;;;7.23;5.40;;;11.00;1.00;;;;;;5031259;28;20682;-69
2022/05/13 04:24:32;;;;;;;8.17;5.83;;;11.00;1.00;;;;;;5032644;28;20182;-68
2022/05/13 04:26:57;;;;;;;12.90;6.70;;;11.00;1.00;;;;;;5033073;28;20233;-68
2022/05/13 04:29:23;;;;;;;11.13;5.60;;;11.00;1.00;;;;;;5032249;28;20199;-68
2022/05/13 04:31:48;;;;;;;7.07;6.37;;;11.00;1.00;;;;;;5032322;28;20156;-68
2022/05/13 04:34:14;;;;;;;6.70;6.10;;;11.10;1.00;;;;;;5032833;28;20210;-62
2022/05/13 04:36:40;;;;;;;8.93;6.10;;;11.10;1.00;;;;;;5034994;28;20168;-68
2022/05/13 04:39:06;;;;;;;6.73;6.03;;;11.20;1.00;;;;;;5034260;28;20218;-61
2022/05/13 04:44:17;;;;;;;6.37;5.77;;;11.10;1.00;;;;;;5036482;28;20411;-63
2022/05/13 04:46:43;;;;;;;7.63;6.13;;;11.20;1.00;;;;;;5036032;28;20423;-68
2022/05/13 04:49:09;;;;;;;14.30;6.13;;;11.20;1.00;;;;;;5035500;28;20779;-62
2022/05/13 04:51:35;;;;;;;10.00;6.13;;;11.20;1.00;;;;;;5034143;28;20199;-69
2022/05/13 04:54:01;;;;;;;6.57;5.77;;;11.20;1.00;;;;;;5035920;28;20365;-69
2022/05/13 04:56:29;;;;;;;7.70;6.23;;;11.20;1.00;;;;;;5035921;28;20372;-62
2022/05/13 04:58:55;;;;;;;8.83;6.37;;;11.30;1.00;;;;;;5035154;28;20373;-67
2022/05/13 05:01:21;;;;;;;6.17;5.63;;;11.30;1.00;;;;;;5035837;28;20734;-62
2022/05/13 05:03:48;;;;;;;8.60;6.57;;;11.30;1.00;;;;;;5035618;28;20213;-68
2022/05/13 05:06:14;;;;;;;7.70;6.20;;;11.30;1.00;;;;;;5035697;28;20456;-62
2022/05/13 05:08:41;;;;;;;7.33;5.23;;;11.20;1.00;;;;;;5034532;28;20661;-68
2022/05/13 05:11:08;;;;;;;7.67;6.00;;;11.20;1.00;;;;;;5034227;28;20429;-62
2022/05/13 05:13:40;;;;;;;10.60;5.97;;;11.30;1.00;;;;;;5035552;28;20430;-69
2022/05/13 05:16:06;;;;;;;10.80;6.20;;;11.30;1.00;;;;;;5035598;28;20923;-69
2022/05/13 05:18:33;;;;;;;9.23;5.97;;;11.30;1.00;;;;;;5034725;28;20481;-69
2022/05/13 05:20:59;;;;;;;8.50;6.17;;;11.40;1.00;;;;;;5035308;28;20416;-69
2022/05/13 05:23:30;;;;;;;14.20;6.37;;;11.40;1.00;;;;;;5035449;28;20407;-69
2022/05/13 05:25:56;;;;;;;11.13;5.90;;;11.40;1.00;;;;;;5035075;28;20384;-65
2022/05/13 05:28:22;;;;;;;11.03;6.50;;;11.40;1.00;;;;;;5035224;28;20444;-62
2022/05/13 05:30:48;;;;;;;6.40;5.80;;;11.40;1.00;;;;;;5034467;28;20929;-62
2022/05/13 05:33:14;;;;;;;9.30;5.47;;;11.40;1.00;;;;;;5035037;28;20203;-62
2022/05/13 05:35:41;;;;;;;6.40;5.80;;;11.50;1.00;;;;;;5033766;28;20660;-61
2022/05/13 05:38:07;;;;;;;9.17;5.33;;;11.50;1.00;;;;;;5035247;28;20396;-69
2022/05/13 05:40:34;;;;;;;10.00;6.40;;;11.50;1.00;;;;;;5034413;28;20919;-70
2022/05/13 05:43:08;;;;;;;5.57;5.17;;;11.50;1.00;;;;;;5034800;28;20409;-64
2022/05/13 05:45:36;;;;;;;15.87;5.83;;;11.50;1.00;;;;;;5034706;28;20810;-62
2022/05/13 05:48:01;;;;;;;6.40;5.27;;;11.60;1.00;;;;;;5034496;28;20399;-69
2022/05/13 05:50:27;;;;;;;6.50;5.87;;;11.60;1.00;;;;;;5032830;28;20785;-68
2022/05/13 05:52:53;;;;;;;9.20;6.23;;;11.60;1.00;;;;;;5033773;28;20187;-62
2022/05/13 05:58:12;;;;;;;7.00;5.43;;;11.70;1.00;;;;;;5034776;28;20249;-67
2022/05/13 06:00:43;;;;;;;8.53;7.73;;;11.80;99.90;;;;;;5034018;28;20877;-62
2022/05/13 06:03:10;;;;;;;7.40;6.30;;;11.80;99.90;;;;;;5034302;28;20419;-61
2022/05/13 06:05:35;;;;;;;5.93;5.20;;;11.90;99.90;;;;;;5034232;28;20414;-61
2022/05/13 06:08:03;;;;;;;9.50;6.30;;;11.90;99.90;;;;;;5034499;28;20450;-61
2022/05/13 06:10:29;;;;;;;10.20;4.50;;;12.00;99.90;;;;;;5033699;28;20199;-68
2022/05/13 06:12:56;;;;;;;6.80;5.20;;;12.00;99.90;;;;;;5034433;28;20480;-66
2022/05/13 06:15:22;;;;;;;8.60;5.43;;;12.10;99.90;;;;;;5034238;28;20410;-62
2022/05/13 06:17:53;;;;;;;5.57;5.17;;;12.10;99.90;;;;;;5034486;28;20373;-61
2022/05/13 06:20:22;;;;;;;10.20;5.60;;;12.20;99.90;;;;;;5032192;28;20765;-62
2022/05/13 06:22:48;;;;;;;14.00;5.50;;;12.10;99.90;;;;;;5033869;28;20404;-67
2022/05/13 06:25:16;;;;;;;7.33;5.37;;;12.10;99.90;;;;;;5034113;28;20885;-62
2022/05/13 06:27:42;;;;;;;15.57;6.07;;;12.20;99.90;;;;;;5034086;28;20168;-68
2022/05/13 06:30:11;;;;;;;9.93;6.40;;;12.20;99.90;;;;;;5033406;28;20427;-61
2022/05/13 06:32:37;;;;;;;7.17;5.60;;;12.20;99.90;;;;;;5033886;28;20503;-61
2022/05/13 06:35:04;;;;;;;6.17;5.03;;;12.20;99.90;;;;;;5034043;28;21012;-62
2022/05/13 06:37:29;;;;;;;9.13;6.60;;;12.20;99.90;;;;;;5032554;28;20381;-62
2022/05/13 06:39:55;;;;;;;13.50;5.73;;;12.10;99.90;;;;;;5031906;28;20381;-62
2022/05/13 06:42:21;;;;;;;5.40;4.87;;;12.10;99.90;;;;;;5034046;28;20191;-68
2022/05/13 06:44:46;;;;;;;8.27;6.13;;;12.20;99.90;;;;;;5034107;28;20178;-61
2022/05/13 06:47:12;;;;;;;6.97;5.23;;;12.20;99.90;;;;;;5033905;28;20167;-62
2022/05/13 06:49:38;;;;;;;6.00;4.57;;;12.20;99.90;;;;;;5032988;28;20667;-68
2022/05/13 06:52:04;;;;;;;5.20;4.70;;;12.30;99.90;;;;;;5033603;28;20267;-62
2022/05/13 06:54:30;;;;;;;11.77;5.50;;;12.40;99.90;;;;;;5033789;28;20156;-62
2022/05/13 06:56:56;;;;;;;6.27;5.57;;;12.50;99.90;;;;;;5033746;28;20380;-68
2022/05/13 06:59:22;;;;;;;9.37;6.40;;;12.40;99.90;;;;;;5031908;28;20415;-63
2022/05/13 07:01:48;;;;;;;5.90;5.30;;;12.40;99.90;;;;;;5033528;28;20541;-62
2022/05/13 07:04:13;;;;;;;6.00;4.60;;;12.40;99.90;;;;;;5033566;28;20430;-61
2022/05/13 07:06:39;;;;;;;7.10;5.20;;;12.40;99.90;;;;;;5033610;28;20596;-62
2022/05/13 07:09:05;;;;;;;7.47;5.17;;;12.40;99.90;;;;;;5032907;28;20183;-62
2022/05/13 07:11:32;;;;;;;12.93;6.33;;;12.30;99.90;;;;;;5033403;28;20447;-68
2022/05/13 07:13:57;;;;;;;8.20;5.40;;;12.10;99.90;;;;;;5032069;28;20437;-68
2022/05/13 07:16:23;;;;;;;5.30;4.70;;;12.20;99.90;;;;;;5032976;28;20377;-62
2022/05/13 07:18:49;;;;;;;9.57;5.97;;;12.30;99.90;;;;;;5032788;28;20187;-61
2022/05/13 07:21:16;;;;;;;9.57;6.73;;;12.30;99.90;;;;;;5033441;28;20175;-62
2022/05/13 07:23:43;;;;;;;7.60;5.20;;;12.40;99.90;;;;;;5033126;28;20948;-62
2022/05/13 08:07:25;;;;;;;9.00;6.50;;;11.90;99.90;;;;;;5086042;28;20358;-62
2022/05/13 08:09:50;;;;;;;13.13;6.50;;;12.30;99.90;;;;;;5087247;27;20375;-68
2022/05/13 08:12:17;;;;;;;6.93;6.23;;;12.30;99.90;;;;;;5087351;27;20170;-61
2022/05/13 08:14:43;;;;;;;6.37;5.33;;;12.30;99.90;;;;;;5078666;28;20171;-61
2022/05/13 08:17:08;;;;;;;6.93;5.50;;;12.40;99.90;;;;;;5066004;28;20811;-62
2022/05/13 08:19:34;;;;;;;8.60;6.07;;;12.50;99.90;;;;;;5066809;28;20193;-61
2022/05/13 08:22:00;;;;;;;6.57;5.67;;;12.60;99.90;;;;;;5065735;28;20198;-61
2022/05/13 08:24:25;;;;;;;8.10;6.80;;;12.80;99.90;;;;;;5077391;28;20218;-68
2022/05/13 08:26:51;;;;;;;6.33;5.77;;;12.80;99.90;;;;;;5081417;28;20562;-61
2022/05/13 08:29:17;;;;;;;8.10;6.00;;;12.90;99.90;;;;;;5066521;28;20190;-68
2022/05/13 08:31:42;;;;;;;8.33;6.23;;;13.10;99.90;;;;;;5066769;28;20170;-68
2022/05/13 08:34:09;;;;;;;8.23;4.93;;;13.40;99.90;;;;;;5066439;28;20178;-68
2022/05/13 08:36:34;;;;;;;10.67;6.27;;;13.60;99.90;;;;;;5065832;28;20297;-68
2022/05/13 08:39:00;;;;;;;6.30;5.70;;;13.60;99.90;;;;;;5066592;28;20479;-68
2022/05/13 08:42:04;;;;;;;6.60;5.37;;;13.60;99.90;;;;;;5066674;27;20375;-68
2022/05/13 08:44:30;;;;;;;8.30;5.40;;;13.40;99.90;;;;;;5077481;28;20217;-62
2022/05/13 08:46:57;;;;;;;11.00;5.10;;;13.30;99.90;;;;;;5085756;28;20413;-67
2022/05/13 08:49:35;;;;;;;5.93;5.20;;;13.20;99.90;;;;;;5086462;27;20397;-67
2022/05/13 08:55:10;;;;;;;4.87;4.50;;;13.00;99.90;;;;;;5085220;28;20486;-62
2022/05/13 08:57:41;;;;;;;5.27;4.73;;;13.00;99.90;;;;;;5084089;27;20776;-62
2022/05/13 09:00:11;;;;;;;5.50;5.10;;;13.20;99.90;;;;;;5086349;28;20423;-67
2022/05/13 09:02:39;;;;;;;6.43;5.00;;;13.40;99.90;;;;;;5086515;28;20367;-62
2022/05/13 09:05:21;;;;;;;10.63;5.77;;;13.60;99.90;;;;;;5084933;28;20409;-68
2022/05/13 09:07:47;;;;;;;10.93;5.17;;;13.70;99.90;;;;;;5074895;28;20420;-67
2022/05/13 09:10:14;;;;;;;7.40;6.40;;;14.10;99.90;;;;;;5072698;27;20364;-62
2022/05/13 09:12:58;;;;;;;5.90;5.27;;;14.50;99.90;;;;;;5072997;27;20428;-62
2022/05/13 09:15:35;;;;;;;6.77;5.27;;;14.60;99.90;;;;;;5071481;28;20452;-62
2022/05/13 09:18:25;;;;;;;8.03;5.87;;;14.50;99.90;;;;;;5071541;28;20423;-68
2022/05/13 09:21:00;;;;;;;5.10;4.67;;;14.40;99.90;;;;;;5072559;28;20450;-62
2022/05/13 09:23:26;;;;;;;6.80;6.00;;;14.60;99.90;;;;;;5071348;28;20382;-68
2022/05/13 09:26:06;;;;;;;14.57;7.00;;;14.70;99.90;;;;;;5072595;28;20400;-67
2022/05/13 09:28:35;;;;;;;10.83;6.60;;;15.10;99.90;;;;;;5070517;28;20406;-62
2022/05/13 09:31:19;;;;;;;11.23;6.77;;;15.50;99.90;;;;;;5071914;28;20743;-63
2022/05/13 09:33:47;;;;;;;6.83;6.20;;;15.80;99.90;;;;;;5071223;28;20480;-62
2022/05/13 09:36:21;;;;;;;6.63;6.03;;;15.60;99.90;;;;;;5071692;28;20532;-67
2022/05/13 09:38:58;;;;;;;10.87;6.80;;;15.80;99.90;;;;;;5071701;27;20443;-68
2022/05/13 09:41:30;;;;;;;16.40;6.93;;;16.00;99.90;;;;;;5072314;28;20445;-62
2022/05/13 09:44:08;;;;;;;11.77;6.33;;;16.20;99.90;;;;;;5070450;28;20456;-68
2022/05/13 09:46:35;;;;;;;11.53;6.30;;;16.10;99.90;;;;;;5071290;28;20400;-63
2022/05/13 09:49:04;;;;;;;5.93;4.93;;;16.20;99.90;;;;;;5070871;27;20433;-63
2022/05/13 09:51:36;;;;;;;7.63;4.77;;;16.40;99.90;;;;;;5072112;27;20408;-63
2022/05/13 09:54:06;;;;;;;8.20;4.90;;;16.40;99.90;;;;;;5070481;28;20450;-67
2022/05/13 09:56:41;;;;;;;13.23;5.00;;;16.50;99.90;;;;;;5071065;28;20451;-62
2022/05/13 09:59:15;;;;;;;6.77;4.60;;;16.80;99.90;;;;;;5072092;28;20770;-68
2022/05/13 10:01:41;;;;;;;9.13;4.00;;;16.40;99.90;;;;;;5072018;28;20405;-62
2022/05/13 10:04:13;;;;;;;4.20;3.80;;;16.20;99.90;;;;;;5069863;27;20519;-68
2022/05/13 10:06:41;;;;;;;6.80;2.83;;;15.70;99.90;;;;;;5070848;28;20246;-61
2022/05/13 10:15:10;;;;;;;4.30;3.40;;;14.80;99.90;;;;;;5070846;28;20467;-67
2022/05/13 10:17:47;;;;;;;6.43;3.93;;;15.00;99.90;;;;;;5070742;28;20415;-68
2022/05/13 10:20:30;;;;;;;3.30;3.10;;;15.00;99.90;;;;;;5070924;28;20388;-62
2022/05/13 10:23:00;;;;;;;7.80;3.70;;;14.90;99.90;;;;;;5071753;28;20408;-67
2022/05/13 10:25:55;;;;;;;4.73;3.30;;;14.90;99.90;;;;;;5070074;27;20451;-68
2022/05/13 10:28:28;;;;;;;3.57;3.27;;;15.00;99.90;;;;;;5073100;28;20469;-67
2022/05/13 10:31:00;;;;;;;3.50;3.20;;;15.10;99.90;;;;;;5071466;28;20974;-68
2022/05/13 10:33:42;;;;;;;3.07;2.73;;;15.40;99.90;;;;;;5071564;27;20408;-61
2022/05/13 10:36:16;;;;;;;5.07;2.40;;;15.70;99.90;;;;;;5051453;28;20416;-67
2022/05/13 10:38:42;;;;;;;2.60;2.40;;;16.10;99.90;;;;;;5049571;28;20400;-61
2022/05/13 10:41:39;;;;;;;4.03;3.00;;;16.40;99.90;;;;;;5051484;28;20759;-61
2022/05/13 10:44:31;;;;;;;3.60;2.50;;;16.40;99.90;;;;;;5067098;28;20917;-68
2022/05/13 10:47:00;;;;;;;2.17;1.97;;;16.00;99.90;;;;;;5069022;27;20782;-68
2022/05/13 10:49:33;;;;;;;3.27;2.50;;;15.80;99.90;;;;;;5071117;28;20480;-62
2022/05/13 10:52:21;;;;;;;4.00;2.43;;;15.60;99.90;;;;;;5069918;28;20500;-67
2022/05/13 10:54:52;;;;;;;2.87;1.80;;;15.60;99.90;;;;;;5070961;28;20882;-61
2022/05/13 10:57:27;;;;;;;7.33;2.20;;;15.90;99.90;;;;;;5068790;27;20500;-62
2022/05/13 11:00:17;;;;;;;2.90;2.47;;;16.20;99.90;;;;;;5070842;27;20401;-62
2022/05/13 11:02:57;;;;;;;2.83;2.63;;;16.60;99.90;;;;;;5069604;28;20904;-63
2022/05/13 11:05:41;;;;;;;2.37;2.27;;;16.60;99.90;;;;;;5071041;28;20928;-68
2022/05/13 11:08:14;;;;;;;4.63;2.57;;;16.60;99.90;;;;;;5070074;27;20429;-68
2022/05/13 11:11:14;;;;;;;8.97;2.60;;;16.60;99.90;;;;;;5070825;28;20396;-67
2022/05/13 11:13:41;;;;;;;3.13;2.20;;;16.70;99.90;;;;;;5073936;28;20498;-61
2022/05/13 11:16:56;;;;;;;6.77;3.40;;;16.80;99.90;;;;;;5070880;28;20496;-61
2022/05/13 11:19:40;;;;;;;6.30;2.47;;;17.10;99.90;;;;;;5061036;28;20973;-62
2022/05/13 11:22:18;;;;;;;4.47;2.53;;;17.80;99.90;;;;;;5069478;28;20456;-67
2022/05/13 11:27:43;;;;;;;6.40;2.10;;;19.00;99.90;;;;;;5049664;28;20417;-68
2022/05/13 11:30:23;;;;;;;6.63;1.83;;;18.20;99.90;;;;;;5050471;28;20393;-68
2022/05/13 11:33:02;;;;;;;2.43;1.83;;;17.30;99.90;;;;;;5056005;28;20437;-61
2022/05/13 11:35:54;;;;;;;4.13;2.23;;;17.40;99.90;;;;;;5070557;28;20428;-62
2022/05/13 11:38:47;;;;;;;3.10;2.10;;;18.20;99.90;;;;;;5069137;28;20440;-68
2022/05/13 11:41:14;;;;;;;5.93;2.30;;;18.80;99.90;;;;;;5080019;28;20417;-68
2022/05/13 11:43:58;;;;;;;2.80;2.20;;;18.90;99.90;;;;;;5068619;28;20432;-62
2022/05/13 11:46:58;;;;;;;2.47;2.30;;;18.80;99.90;;;;;;5070111;27;20396;-67
2022/05/13 11:49:35;;;;;;;2.63;2.43;;;18.30;99.00;;;;;;5070223;28;20424;-67
2022/05/13 11:52:12;;;;;;;3.10;2.23;;;17.70;95.00;;;;;;5069087;27;20411;-68
2022/05/13 11:54:41;;;;;;;2.30;2.10;;;17.30;94.70;;;;;;5049779;28;20440;-66
2022/05/13 11:57:19;;;;;;;3.33;2.33;;;17.30;94.70;;;;;;5049356;28;20405;-68
2022/05/13 11:59:47;;;;;;;3.83;2.30;;;17.10;94.70;;;;;;5050468;28;20387;-67
2022/05/13 12:02:52;;;;;;;2.80;1.90;;;17.10;94.70;;;;;;5049748;28;20470;-67
2022/05/13 12:05:18;;;;;;;3.20;2.70;;;16.80;94.50;;;;;;5053489;28;20495;-68
2022/05/13 12:08:07;;;;;;;3.40;2.07;;;16.20;94.30;;;;;;5049338;28;20408;-67
2022/05/13 12:10:51;;;;;;;2.13;1.93;;;15.80;94.20;;;;;;5049937;28;20169;-61
2022/05/13 12:13:38;;;;;;;4.10;2.23;;;15.70;94.20;;;;;;5057547;28;20436;-61
2022/05/13 12:16:22;;;;;;;5.53;2.47;;;15.80;94.90;;;;;;5070010;28;20425;-61
2022/05/13 12:18:52;;;;;;;3.77;2.00;;;16.20;99.90;;;;;;5069330;28;20435;-67
2022/05/13 12:21:38;;;;;;;2.07;1.90;;;16.80;99.90;;;;;;5070018;28;20364;-60
2022/05/13 12:24:25;;;;;;;1.90;1.80;;;17.10;94.60;;;;;;5068808;28;20828;-67
2022/05/13 12:26:51;;;;;;;3.60;2.20;;;16.80;94.50;;;;;;5069061;28;20496;-61
2022/05/13 12:29:41;;;;;;;6.60;2.30;;;16.40;94.40;;;;;;5069299;27;20511;-63
2022/05/13 12:32:20;;;;;;;6.30;2.40;;;15.90;94.20;;;;;;5069736;28;20170;-60
2022/05/13 12:37:45;;;;;;;3.80;2.50;;;15.40;94.00;;;;;;5068916;28;20420;-67
2022/05/13 12:40:24;;;;;;;2.30;1.90;;;15.30;96.20;;;;;;5069801;27;20382;-68
2022/05/13 12:42:55;;;;;;;3.00;1.93;;;15.30;96.50;;;;;;5069675;28;20378;-67
2022/05/13 12:45:41;;;;;;;10.33;2.07;;;15.20;96.90;;;;;;5066102;27;20400;-61
2022/05/13 12:48:07;;;;;;;2.43;2.10;;;15.10;96.70;;;;;;5051946;27;20902;-62
2022/05/13 12:50:49;;;;;;;2.33;2.10;;;15.10;98.50;;;;;;5053193;28;20378;-67
2022/05/13 12:53:30;;;;;;;8.10;3.60;;;15.10;99.90;;;;;;5057144;28;20643;-60
2022/05/13 12:56:16;;;;;;;3.90;2.30;;;15.40;99.90;;;;;;5072966;27;21064;-67
2022/05/13 12:58:47;;;;;;;3.13;2.20;;;15.70;99.90;;;;;;5072108;28;20448;-68
2022/05/13 13:01:16;;;;;;;5.63;1.70;;;15.90;99.90;;;;;;5068874;28;20896;-67
2022/05/13 13:03:46;;;;;;;2.63;1.97;;;15.90;99.60;;;;;;5052234;28;20934;-65
2022/05/13 13:06:17;;;;;;;3.00;2.17;;;15.70;99.90;;;;;;5052335;28;20478;-66
2022/05/13 13:08:46;;;;;;;3.63;1.63;;;15.50;99.90;;;;;;5052102;28;20421;-60
2022/05/13 13:11:28;;;;;;;3.40;2.10;;;15.50;99.90;;;;;;5052770;28;20456;-60
2022/05/13 13:14:21;;;;;;;5.63;2.40;;;15.50;99.90;;;;;;5060214;28;20428;-61
2022/05/13 13:17:11;;;;;;;2.60;1.63;;;15.70;99.90;;;;;;5071726;28;20466;-67
2022/05/13 13:19:36;;;;;;;4.20;2.13;;;15.70;99.90;;;;;;5072624;28;20469;-68
2022/05/13 13:22:09;;;;;;;2.77;2.17;;;16.00;99.90;;;;;;5072452;28;20394;-67
2022/05/13 13:24:37;;;;;;;2.27;2.00;;;16.60;99.90;;;;;;5071217;28;20666;-60
2022/05/13 13:27:05;;;;;;;9.77;2.10;;;16.70;99.90;;;;;;5071573;28;20898;-60
2022/05/13 13:29:35;;;;;;;7.53;1.90;;;16.50;99.70;;;;;;5072508;28;20412;-68
2022/05/13 13:32:04;;;;;;;3.80;2.37;;;16.30;99.90;;;;;;5071196;27;20898;-67
2022/05/13 13:34:33;;;;;;;3.33;1.70;;;16.20;99.90;;;;;;5071309;28;20477;-61
2022/05/13 13:37:01;;;;;;;3.43;1.93;;;16.50;99.90;;;;;;5071415;28;20493;-68
2022/05/13 13:39:29;;;;;;;2.07;1.80;;;17.10;99.90;;;;;;5072326;28;20941;-61
2022/05/13 13:41:59;;;;;;;6.33;2.27;;;18.00;99.90;;;;;;5072063;28;20393;-68
2022/05/13 13:44:25;;;;;;;2.60;1.90;;;18.00;99.90;;;;;;5070112;27;20511;-63
2022/05/13 13:46:51;;;;;;;1.97;1.80;;;18.90;99.90;;;;;;5054348;27;20585;-62
2022/05/13 13:49:24;;;;;;;6.13;1.90;;;18.40;96.30;;;;;;5050755;28;20198;-69
2022/05/13 13:51:58;;;;;;;2.47;1.70;;;17.70;94.90;;;;;;5052203;28;20410;-63
2022/05/13 13:54:48;;;;;;;3.23;2.07;;;17.30;96.00;;;;;;5061951;28;20428;-69
2022/05/13 13:57:47;;;;;;;4.70;1.60;;;16.80;94.60;;;;;;5071228;28;20413;-69
2022/05/13 14:00:20;;;;;;;3.00;2.27;;;16.40;94.40;;;;;;5071962;27;20404;-69
2022/05/13 14:02:50;;;;;;;3.10;2.00;;;16.30;98.10;;;;;;5071604;28;20381;-70
2022/05/13 14:05:20;;;;;;;4.13;1.97;;;16.40;96.80;;;;;;5060581;28;20485;-62
2022/05/13 14:07:49;;;;;;;2.90;1.97;;;16.60;98.50;;;;;;5051011;28;20424;-62
2022/05/13 14:10:26;;;;;;;3.60;2.07;;;17.00;99.90;;;;;;5051642;28;20402;-62
2022/05/13 14:12:53;;;;;;;4.80;1.67;;;17.30;98.00;;;;;;5052198;28;20465;-69
2022/05/13 14:15:21;;;;;;;7.73;3.10;;;17.10;94.70;;;;;;5068546;28;20452;-69
2022/05/13 14:17:55;;;;;;;7.97;2.57;;;16.80;97.80;;;;;;5070753;28;20993;-62